sensor_id;sensor_type;location;lat;lon;timestamp;P1;durP1;ratioP1;P2;durP2;ratioP2
64684;SDS011;51109;47.414;18.954;2023-07-13T00:00:41;9.82;;;5.00;;
64684;SDS011;51109;47.414;18.954;2023-07-13T00:03:08;6.32;;;3.85;;
64684;SDS011;51109;47.414;18.954;2023-07-13T00:05:34;6.93;;;3.60;;
64684;SDS011;51109;47.414;18.954;2023-07-13T00:08:00;5.47;;;3.75;;
64684;SDS011;51109;47.414;18.954;2023-07-13T00:10:26;9.93;;;4.05;;
64684;SDS011;51109;47.414;18.954;2023-07-13T00:12:52;8.45;;;3.90;;
64684;SDS011;51109;47.414;18.954;2023-07-13T00:15:22;6.47;;;3.50;;
64684;SDS011;51109;47.414;18.954;2023-07-13T00:17:50;4.07;;;2.58;;
64684;SDS011;51109;47.414;18.954;2023-07-13T00:20:17;4.03;;;2.75;;
64684;SDS011;51109;47.414;18.954;2023-07-13T00:22:46;5.07;;;2.30;;
64684;SDS011;51109;47.414;18.954;2023-07-13T00:25:13;4.72;;;2.63;;
64684;SDS011;51109;47.414;18.954;2023-07-13T00:27:39;5.07;;;2.58;;
64684;SDS011;51109;47.414;18.954;2023-07-13T00:30:07;4.50;;;2.20;;
64684;SDS011;51109;47.414;18.954;2023-07-13T00:32:34;3.95;;;2.25;;
64684;SDS011;51109;47.414;18.954;2023-07-13T00:35:00;3.97;;;2.03;;
64684;SDS011;51109;47.414;18.954;2023-07-13T00:37:28;3.45;;;2.10;;
64684;SDS011;51109;47.414;18.954;2023-07-13T00:39:54;3.38;;;2.03;;
64684;SDS011;51109;47.414;18.954;2023-07-13T00:42:20;4.28;;;2.03;;
64684;SDS011;51109;47.414;18.954;2023-07-13T00:47:37;4.07;;;2.47;;
64684;SDS011;51109;47.414;18.954;2023-07-13T00:50:07;4.30;;;2.10;;
64684;SDS011;51109;47.414;18.954;2023-07-13T00:52:38;4.38;;;2.00;;
64684;SDS011;51109;47.414;18.954;2023-07-13T00:55:07;5.28;;;2.65;;
64684;SDS011;51109;47.414;18.954;2023-07-13T00:57:34;5.55;;;2.42;;
64684;SDS011;51109;47.414;18.954;2023-07-13T01:00:01;4.18;;;2.35;;
64684;SDS011;51109;47.414;18.954;2023-07-13T01:02:37;6.03;;;2.67;;
64684;SDS011;51109;47.414;18.954;2023-07-13T01:05:09;4.85;;;2.47;;
64684;SDS011;51109;47.414;18.954;2023-07-13T01:07:39;6.50;;;2.58;;
64684;SDS011;51109;47.414;18.954;2023-07-13T01:10:07;4.88;;;2.67;;
64684;SDS011;51109;47.414;18.954;2023-07-13T01:12:33;3.88;;;2.42;;
64684;SDS011;51109;47.414;18.954;2023-07-13T01:15:00;5.90;;;2.72;;
64684;SDS011;51109;47.414;18.954;2023-07-13T01:17:27;4.38;;;2.60;;
64684;SDS011;51109;47.414;18.954;2023-07-13T01:19:54;7.68;;;2.90;;
64684;SDS011;51109;47.414;18.954;2023-07-13T01:22:20;6.15;;;3.13;;
64684;SDS011;51109;47.414;18.954;2023-07-13T01:24:52;5.53;;;3.40;;
64684;SDS011;51109;47.414;18.954;2023-07-13T01:27:23;5.10;;;2.92;;
64684;SDS011;51109;47.414;18.954;2023-07-13T01:29:51;4.82;;;2.95;;
64684;SDS011;51109;47.414;18.954;2023-07-13T01:32:20;5.25;;;2.88;;
64684;SDS011;51109;47.414;18.954;2023-07-13T01:34:50;5.70;;;2.88;;
64684;SDS011;51109;47.414;18.954;2023-07-13T01:37:19;5.45;;;2.90;;
64684;SDS011;51109;47.414;18.954;2023-07-13T01:39:46;4.38;;;2.80;;
64684;SDS011;51109;47.414;18.954;2023-07-13T01:42:12;9.05;;;3.13;;
64684;SDS011;51109;47.414;18.954;2023-07-13T01:44:39;5.75;;;3.90;;
64684;SDS011;51109;47.414;18.954;2023-07-13T01:47:05;3.60;;;2.80;;
64684;SDS011;51109;47.414;18.954;2023-07-13T01:49:31;7.20;;;3.13;;
64684;SDS011;51109;47.414;18.954;2023-07-13T01:51:57;6.43;;;3.00;;
64684;SDS011;51109;47.414;18.954;2023-07-13T01:54:23;5.65;;;3.05;;
64684;SDS011;51109;47.414;18.954;2023-07-13T01:56:49;5.78;;;3.45;;
64684;SDS011;51109;47.414;18.954;2023-07-13T01:59:15;6.80;;;5.35;;
64684;SDS011;51109;47.414;18.954;2023-07-13T02:01:41;9.75;;;4.30;;
64684;SDS011;51109;47.414;18.954;2023-07-13T02:04:07;5.80;;;3.38;;
64684;SDS011;51109;47.414;18.954;2023-07-13T02:06:32;9.82;;;3.63;;
64684;SDS011;51109;47.414;18.954;2023-07-13T02:08:59;7.68;;;3.38;;
64684;SDS011;51109;47.414;18.954;2023-07-13T02:11:25;7.40;;;3.10;;
64684;SDS011;51109;47.414;18.954;2023-07-13T02:13:58;6.00;;;3.47;;
64684;SDS011;51109;47.414;18.954;2023-07-13T02:16:26;10.73;;;3.55;;
64684;SDS011;51109;47.414;18.954;2023-07-13T02:18:52;6.95;;;3.38;;
64684;SDS011;51109;47.414;18.954;2023-07-13T02:21:18;6.13;;;3.22;;
64684;SDS011;51109;47.414;18.954;2023-07-13T02:23:43;3.30;;;2.97;;
64684;SDS011;51109;47.414;18.954;2023-07-13T02:26:09;6.45;;;3.58;;
64684;SDS011;51109;47.414;18.954;2023-07-13T02:28:35;7.00;;;3.10;;
64684;SDS011;51109;47.414;18.954;2023-07-13T02:31:05;3.33;;;3.03;;
64684;SDS011;51109;47.414;18.954;2023-07-13T02:33:33;7.57;;;3.30;;
64684;SDS011;51109;47.414;18.954;2023-07-13T02:35:59;7.78;;;3.42;;
64684;SDS011;51109;47.414;18.954;2023-07-13T02:38:25;6.72;;;2.88;;
64684;SDS011;51109;47.414;18.954;2023-07-13T02:40:51;6.45;;;3.20;;
64684;SDS011;51109;47.414;18.954;2023-07-13T02:43:17;6.97;;;3.53;;
64684;SDS011;51109;47.414;18.954;2023-07-13T02:45:43;3.78;;;3.05;;
64684;SDS011;51109;47.414;18.954;2023-07-13T02:48:10;6.63;;;3.55;;
64684;SDS011;51109;47.414;18.954;2023-07-13T02:50:36;8.70;;;3.20;;
64684;SDS011;51109;47.414;18.954;2023-07-13T02:53:02;4.63;;;3.55;;
64684;SDS011;51109;47.414;18.954;2023-07-13T02:55:28;4.43;;;3.25;;
64684;SDS011;51109;47.414;18.954;2023-07-13T02:57:56;8.85;;;3.60;;
64684;SDS011;51109;47.414;18.954;2023-07-13T03:00:22;7.03;;;3.70;;
64684;SDS011;51109;47.414;18.954;2023-07-13T03:02:49;7.88;;;3.75;;
64684;SDS011;51109;47.414;18.954;2023-07-13T03:05:15;5.18;;;3.40;;
64684;SDS011;51109;47.414;18.954;2023-07-13T03:07:42;6.25;;;4.47;;
64684;SDS011;51109;47.414;18.954;2023-07-13T03:10:09;10.60;;;4.15;;
64684;SDS011;51109;47.414;18.954;2023-07-13T03:12:35;11.85;;;4.50;;
64684;SDS011;51109;47.414;18.954;2023-07-13T03:15:01;9.73;;;4.95;;
64684;SDS011;51109;47.414;18.954;2023-07-13T03:17:27;5.45;;;3.70;;
64684;SDS011;51109;47.414;18.954;2023-07-13T03:19:53;8.35;;;4.20;;
64684;SDS011;51109;47.414;18.954;2023-07-13T03:22:19;6.85;;;3.78;;
64684;SDS011;51109;47.414;18.954;2023-07-13T03:24:45;6.50;;;3.22;;
64684;SDS011;51109;47.414;18.954;2023-07-13T03:27:12;7.75;;;3.42;;
64684;SDS011;51109;47.414;18.954;2023-07-13T03:29:38;7.25;;;2.90;;
64684;SDS011;51109;47.414;18.954;2023-07-13T03:32:04;6.55;;;3.53;;
64684;SDS011;51109;47.414;18.954;2023-07-13T03:34:30;4.80;;;3.03;;
64684;SDS011;51109;47.414;18.954;2023-07-13T03:36:56;5.18;;;2.88;;
64684;SDS011;51109;47.414;18.954;2023-07-13T03:39:22;3.97;;;3.13;;
64684;SDS011;51109;47.414;18.954;2023-07-13T03:41:48;6.32;;;3.17;;
64684;SDS011;51109;47.414;18.954;2023-07-13T03:44:16;4.57;;;2.78;;
64684;SDS011;51109;47.414;18.954;2023-07-13T03:46:43;3.90;;;3.55;;
64684;SDS011;51109;47.414;18.954;2023-07-13T03:49:09;8.05;;;3.00;;
64684;SDS011;51109;47.414;18.954;2023-07-13T03:51:35;6.53;;;4.20;;
64684;SDS011;51109;47.414;18.954;2023-07-13T03:54:01;5.63;;;2.92;;
64684;SDS011;51109;47.414;18.954;2023-07-13T03:56:28;5.18;;;3.28;;
64684;SDS011;51109;47.414;18.954;2023-07-13T03:58:56;5.57;;;3.17;;
64684;SDS011;51109;47.414;18.954;2023-07-13T04:01:22;6.90;;;3.30;;
64684;SDS011;51109;47.414;18.954;2023-07-13T04:03:50;4.40;;;3.03;;
64684;SDS011;51109;47.414;18.954;2023-07-13T04:06:18;4.40;;;3.22;;
64684;SDS011;51109;47.414;18.954;2023-07-13T04:08:47;7.47;;;3.35;;
64684;SDS011;51109;47.414;18.954;2023-07-13T04:11:15;6.10;;;3.30;;
64684;SDS011;51109;47.414;18.954;2023-07-13T04:13:41;6.68;;;2.97;;
64684;SDS011;51109;47.414;18.954;2023-07-13T04:16:07;7.53;;;3.40;;
64684;SDS011;51109;47.414;18.954;2023-07-13T04:18:33;7.45;;;3.72;;
64684;SDS011;51109;47.414;18.954;2023-07-13T04:20:59;5.47;;;3.83;;
64684;SDS011;51109;47.414;18.954;2023-07-13T04:23:25;8.93;;;4.10;;
64684;SDS011;51109;47.414;18.954;2023-07-13T04:25:52;8.70;;;4.10;;
64684;SDS011;51109;47.414;18.954;2023-07-13T04:28:19;8.50;;;3.97;;
64684;SDS011;51109;47.414;18.954;2023-07-13T04:30:46;6.32;;;4.60;;
64684;SDS011;51109;47.414;18.954;2023-07-13T04:33:12;5.13;;;3.70;;
64684;SDS011;51109;47.414;18.954;2023-07-13T04:35:38;7.53;;;4.47;;
64684;SDS011;51109;47.414;18.954;2023-07-13T04:38:04;9.27;;;4.00;;
64684;SDS011;51109;47.414;18.954;2023-07-13T04:40:31;6.28;;;3.97;;
64684;SDS011;51109;47.414;18.954;2023-07-13T04:42:57;7.55;;;4.47;;
64684;SDS011;51109;47.414;18.954;2023-07-13T04:45:23;13.10;;;5.03;;
64684;SDS011;51109;47.414;18.954;2023-07-13T04:47:50;9.15;;;4.57;;
64684;SDS011;51109;47.414;18.954;2023-07-13T04:50:16;6.85;;;4.95;;
64684;SDS011;51109;47.414;18.954;2023-07-13T04:52:46;7.40;;;4.75;;
64684;SDS011;51109;47.414;18.954;2023-07-13T04:55:13;6.18;;;4.95;;
64684;SDS011;51109;47.414;18.954;2023-07-13T04:57:39;7.38;;;4.82;;
64684;SDS011;51109;47.414;18.954;2023-07-13T05:00:06;11.07;;;4.60;;
64684;SDS011;51109;47.414;18.954;2023-07-13T05:02:33;6.82;;;4.45;;
64684;SDS011;51109;47.414;18.954;2023-07-13T05:05:01;12.48;;;5.47;;
64684;SDS011;51109;47.414;18.954;2023-07-13T05:07:29;5.32;;;3.53;;
64684;SDS011;51109;47.414;18.954;2023-07-13T05:09:58;10.05;;;5.05;;
64684;SDS011;51109;47.414;18.954;2023-07-13T05:12:25;8.45;;;4.00;;
64684;SDS011;51109;47.414;18.954;2023-07-13T05:14:54;7.88;;;4.13;;
64684;SDS011;51109;47.414;18.954;2023-07-13T05:17:19;15.13;;;5.03;;
64684;SDS011;51109;47.414;18.954;2023-07-13T05:19:45;10.02;;;5.85;;
64684;SDS011;51109;47.414;18.954;2023-07-13T05:22:11;8.85;;;4.70;;
64684;SDS011;51109;47.414;18.954;2023-07-13T05:24:37;15.25;;;5.00;;
64684;SDS011;51109;47.414;18.954;2023-07-13T05:27:03;9.77;;;4.22;;
64684;SDS011;51109;47.414;18.954;2023-07-13T05:29:30;6.60;;;3.90;;
64684;SDS011;51109;47.414;18.954;2023-07-13T05:31:56;4.50;;;2.75;;
64684;SDS011;51109;47.414;18.954;2023-07-13T05:34:22;6.30;;;3.60;;
64684;SDS011;51109;47.414;18.954;2023-07-13T05:36:49;6.30;;;3.75;;
64684;SDS011;51109;47.414;18.954;2023-07-13T05:39:15;4.03;;;3.63;;
64684;SDS011;51109;47.414;18.954;2023-07-13T05:41:41;6.90;;;3.55;;
64684;SDS011;51109;47.414;18.954;2023-07-13T05:44:07;6.82;;;3.80;;
64684;SDS011;51109;47.414;18.954;2023-07-13T05:46:33;6.07;;;4.07;;
64684;SDS011;51109;47.414;18.954;2023-07-13T05:48:59;6.63;;;4.13;;
64684;SDS011;51109;47.414;18.954;2023-07-13T05:51:25;7.43;;;4.07;;
64684;SDS011;51109;47.414;18.954;2023-07-13T05:53:51;9.02;;;4.30;;
64684;SDS011;51109;47.414;18.954;2023-07-13T05:56:17;10.25;;;4.68;;
64684;SDS011;51109;47.414;18.954;2023-07-13T05:58:43;7.78;;;4.22;;
64684;SDS011;51109;47.414;18.954;2023-07-13T06:01:10;11.18;;;5.35;;
64684;SDS011;51109;47.414;18.954;2023-07-13T06:03:38;9.73;;;4.82;;
64684;SDS011;51109;47.414;18.954;2023-07-13T06:06:04;10.77;;;5.45;;
64684;SDS011;51109;47.414;18.954;2023-07-13T06:08:31;8.25;;;3.72;;
64684;SDS011;51109;47.414;18.954;2023-07-13T06:11:12;5.72;;;3.13;;
64684;SDS011;51109;47.414;18.954;2023-07-13T06:13:44;4.07;;;3.15;;
64684;SDS011;51109;47.414;18.954;2023-07-13T06:16:10;4.22;;;3.15;;
64684;SDS011;51109;47.414;18.954;2023-07-13T06:18:36;6.93;;;3.20;;
64684;SDS011;51109;47.414;18.954;2023-07-13T06:21:10;6.43;;;4.07;;
64684;SDS011;51109;47.414;18.954;2023-07-13T06:23:44;6.03;;;2.70;;
64684;SDS011;51109;47.414;18.954;2023-07-13T06:26:13;7.82;;;4.05;;
64684;SDS011;51109;47.414;18.954;2023-07-13T06:28:39;7.18;;;4.30;;
64684;SDS011;51109;47.414;18.954;2023-07-13T06:31:08;4.93;;;3.00;;
64684;SDS011;51109;47.414;18.954;2023-07-13T06:33:35;5.10;;;3.40;;
64684;SDS011;51109;47.414;18.954;2023-07-13T06:36:02;6.45;;;3.15;;
64684;SDS011;51109;47.414;18.954;2023-07-13T06:38:30;7.25;;;3.13;;
64684;SDS011;51109;47.414;18.954;2023-07-13T06:40:56;6.72;;;3.58;;
64684;SDS011;51109;47.414;18.954;2023-07-13T06:43:22;5.80;;;3.47;;
64684;SDS011;51109;47.414;18.954;2023-07-13T06:45:50;7.85;;;3.13;;
64684;SDS011;51109;47.414;18.954;2023-07-13T06:48:19;7.22;;;2.90;;
64684;SDS011;51109;47.414;18.954;2023-07-13T06:50:45;5.22;;;3.20;;
64684;SDS011;51109;47.414;18.954;2023-07-13T06:53:13;3.92;;;2.95;;
64684;SDS011;51109;47.414;18.954;2023-07-13T06:55:39;5.05;;;2.88;;
64684;SDS011;51109;47.414;18.954;2023-07-13T06:58:05;5.07;;;2.58;;
64684;SDS011;51109;47.414;18.954;2023-07-13T07:00:32;3.15;;;2.70;;
64684;SDS011;51109;47.414;18.954;2023-07-13T07:02:58;3.15;;;2.42;;
64684;SDS011;51109;47.414;18.954;2023-07-13T07:05:24;5.28;;;2.85;;
64684;SDS011;51109;47.414;18.954;2023-07-13T07:07:50;3.53;;;2.50;;
64684;SDS011;51109;47.414;18.954;2023-07-13T07:10:17;2.72;;;2.35;;
64684;SDS011;51109;47.414;18.954;2023-07-13T07:12:44;4.63;;;2.20;;
64684;SDS011;51109;47.414;18.954;2023-07-13T07:15:10;3.05;;;2.40;;
64684;SDS011;51109;47.414;18.954;2023-07-13T07:17:36;3.38;;;2.35;;
64684;SDS011;51109;47.414;18.954;2023-07-13T07:20:02;2.58;;;2.38;;
64684;SDS011;51109;47.414;18.954;2023-07-13T07:22:29;3.25;;;2.50;;
64684;SDS011;51109;47.414;18.954;2023-07-13T07:24:56;3.40;;;2.65;;
64684;SDS011;51109;47.414;18.954;2023-07-13T07:27:23;2.53;;;2.30;;
64684;SDS011;51109;47.414;18.954;2023-07-13T07:29:49;3.22;;;2.88;;
64684;SDS011;51109;47.414;18.954;2023-07-13T07:32:15;5.10;;;2.90;;
64684;SDS011;51109;47.414;18.954;2023-07-13T07:34:41;4.97;;;2.90;;
64684;SDS011;51109;47.414;18.954;2023-07-13T07:37:09;3.65;;;2.85;;
64684;SDS011;51109;47.414;18.954;2023-07-13T07:39:37;6.60;;;3.47;;
64684;SDS011;51109;47.414;18.954;2023-07-13T07:42:03;3.53;;;3.00;;
64684;SDS011;51109;47.414;18.954;2023-07-13T07:44:33;6.47;;;3.20;;
64684;SDS011;51109;47.414;18.954;2023-07-13T07:46:59;3.83;;;3.05;;
64684;SDS011;51109;47.414;18.954;2023-07-13T07:49:25;3.17;;;2.83;;
64684;SDS011;51109;47.414;18.954;2023-07-13T07:51:52;4.10;;;2.70;;
64684;SDS011;51109;47.414;18.954;2023-07-13T07:54:18;3.25;;;2.70;;
64684;SDS011;51109;47.414;18.954;2023-07-13T07:56:43;4.15;;;2.17;;
64684;SDS011;51109;47.414;18.954;2023-07-13T07:59:09;2.85;;;2.58;;
64684;SDS011;51109;47.414;18.954;2023-07-13T08:01:36;4.03;;;2.50;;
64684;SDS011;51109;47.414;18.954;2023-07-13T08:04:02;3.55;;;2.20;;
64684;SDS011;51109;47.414;18.954;2023-07-13T08:06:28;7.28;;;2.28;;
64684;SDS011;51109;47.414;18.954;2023-07-13T08:08:54;3.42;;;2.38;;
64684;SDS011;51109;47.414;18.954;2023-07-13T08:11:21;2.72;;;2.33;;
64684;SDS011;51109;47.414;18.954;2023-07-13T08:13:47;5.03;;;2.33;;
64684;SDS011;51109;47.414;18.954;2023-07-13T08:16:15;3.95;;;3.00;;
64684;SDS011;51109;47.414;18.954;2023-07-13T08:18:41;6.57;;;2.42;;
64684;SDS011;51109;47.414;18.954;2023-07-13T08:21:07;2.80;;;2.33;;
64684;SDS011;51109;47.414;18.954;2023-07-13T08:23:34;4.22;;;2.30;;
64684;SDS011;51109;47.414;18.954;2023-07-13T08:26:01;3.45;;;2.40;;
64684;SDS011;51109;47.414;18.954;2023-07-13T08:28:28;3.72;;;2.50;;
64684;SDS011;51109;47.414;18.954;2023-07-13T08:30:54;2.45;;;2.25;;
64684;SDS011;51109;47.414;18.954;2023-07-13T08:33:21;4.63;;;2.67;;
64684;SDS011;51109;47.414;18.954;2023-07-13T08:35:49;4.63;;;2.60;;
64684;SDS011;51109;47.414;18.954;2023-07-13T08:38:16;2.78;;;2.58;;
64684;SDS011;51109;47.414;18.954;2023-07-13T08:40:43;3.22;;;2.17;;
64684;SDS011;51109;47.414;18.954;2023-07-13T08:43:13;4.47;;;2.55;;
64684;SDS011;51109;47.414;18.954;2023-07-13T08:53:39;3.33;;;2.38;;
64684;SDS011;51109;47.414;18.954;2023-07-13T08:56:16;4.53;;;2.42;;
64684;SDS011;51109;47.414;18.954;2023-07-13T08:58:45;4.03;;;2.80;;
64684;SDS011;51109;47.414;18.954;2023-07-13T09:04:17;2.58;;;2.30;;
64684;SDS011;51109;47.414;18.954;2023-07-13T09:14:57;3.85;;;2.92;;
64684;SDS011;51109;47.414;18.954;2023-07-13T09:17:29;4.50;;;3.15;;
64684;SDS011;51109;47.414;18.954;2023-07-13T09:20:02;4.07;;;2.63;;
64684;SDS011;51109;47.414;18.954;2023-07-13T09:22:33;5.47;;;3.03;;
64684;SDS011;51109;47.414;18.954;2023-07-13T09:25:21;6.18;;;3.00;;
64684;SDS011;51109;47.414;18.954;2023-07-13T09:30:50;2.65;;;2.38;;
64684;SDS011;51109;47.414;18.954;2023-07-13T09:33:31;5.05;;;2.83;;
64684;SDS011;51109;47.414;18.954;2023-07-13T09:35:57;4.43;;;2.50;;
64684;SDS011;51109;47.414;18.954;2023-07-13T09:38:24;4.47;;;2.97;;
64684;SDS011;51109;47.414;18.954;2023-07-13T09:43:35;4.55;;;2.50;;
64684;SDS011;51109;47.414;18.954;2023-07-13T09:46:02;3.40;;;2.78;;
64684;SDS011;51109;47.414;18.954;2023-07-13T09:48:34;3.10;;;2.65;;
64684;SDS011;51109;47.414;18.954;2023-07-13T09:51:06;3.72;;;2.38;;
64684;SDS011;51109;47.414;18.954;2023-07-13T09:53:40;4.13;;;2.58;;
64684;SDS011;51109;47.414;18.954;2023-07-13T09:56:21;4.95;;;2.15;;
64684;SDS011;51109;47.414;18.954;2023-07-13T09:58:49;2.67;;;2.47;;
64684;SDS011;51109;47.414;18.954;2023-07-13T10:01:15;5.40;;;2.30;;
64684;SDS011;51109;47.414;18.954;2023-07-13T10:03:52;3.13;;;2.60;;
64684;SDS011;51109;47.414;18.954;2023-07-13T10:06:20;5.47;;;2.75;;
64684;SDS011;51109;47.414;18.954;2023-07-13T10:08:51;2.40;;;2.20;;
64684;SDS011;51109;47.414;18.954;2023-07-13T10:11:19;4.18;;;2.17;;
64684;SDS011;51109;47.414;18.954;2023-07-13T10:13:51;2.50;;;2.10;;
64684;SDS011;51109;47.414;18.954;2023-07-13T10:16:21;4.22;;;2.65;;
64684;SDS011;51109;47.414;18.954;2023-07-13T10:18:57;3.53;;;1.92;;
64684;SDS011;51109;47.414;18.954;2023-07-13T10:21:33;3.58;;;2.30;;
64684;SDS011;51109;47.414;18.954;2023-07-13T10:26:49;3.83;;;2.35;;
64684;SDS011;51109;47.414;18.954;2023-07-13T10:29:27;4.25;;;2.30;;
64684;SDS011;51109;47.414;18.954;2023-07-13T10:31:54;3.03;;;2.30;;
64684;SDS011;51109;47.414;18.954;2023-07-13T10:34:22;3.60;;;1.90;;
64684;SDS011;51109;47.414;18.954;2023-07-13T10:36:48;2.85;;;2.00;;
64684;SDS011;51109;47.414;18.954;2023-07-13T10:39:16;2.78;;;2.00;;
64684;SDS011;51109;47.414;18.954;2023-07-13T10:41:50;2.70;;;2.15;;
64684;SDS011;51109;47.414;18.954;2023-07-13T10:44:21;3.38;;;2.53;;
64684;SDS011;51109;47.414;18.954;2023-07-13T10:46:58;2.58;;;2.17;;
64684;SDS011;51109;47.414;18.954;2023-07-13T10:49:32;4.63;;;2.28;;
64684;SDS011;51109;47.414;18.954;2023-07-13T10:52:00;2.38;;;2.17;;
64684;SDS011;51109;47.414;18.954;2023-07-13T10:54:30;4.45;;;2.00;;
64684;SDS011;51109;47.414;18.954;2023-07-13T10:59:43;2.42;;;2.17;;
64684;SDS011;51109;47.414;18.954;2023-07-13T11:04:53;2.35;;;2.15;;
64684;SDS011;51109;47.414;18.954;2023-07-13T11:07:22;4.63;;;2.38;;
64684;SDS011;51109;47.414;18.954;2023-07-13T11:09:57;3.13;;;2.25;;
64684;SDS011;51109;47.414;18.954;2023-07-13T11:22:42;6.15;;;2.25;;
64684;SDS011;51109;47.414;18.954;2023-07-13T11:30:36;4.63;;;2.50;;
64684;SDS011;51109;47.414;18.954;2023-07-13T11:33:23;2.80;;;2.22;;
64684;SDS011;51109;47.414;18.954;2023-07-13T11:41:06;3.15;;;2.72;;
64684;SDS011;51109;47.414;18.954;2023-07-13T11:43:40;2.70;;;2.30;;
64684;SDS011;51109;47.414;18.954;2023-07-13T11:46:14;3.17;;;2.30;;
64684;SDS011;51109;47.414;18.954;2023-07-13T11:48:41;2.47;;;2.17;;
64684;SDS011;51109;47.414;18.954;2023-07-13T11:51:09;2.80;;;2.20;;
64684;SDS011;51109;47.414;18.954;2023-07-13T11:53:49;5.05;;;3.22;;
64684;SDS011;51109;47.414;18.954;2023-07-13T11:56:17;2.58;;;2.38;;
64684;SDS011;51109;47.414;18.954;2023-07-13T11:58:43;5.47;;;2.60;;
64684;SDS011;51109;47.414;18.954;2023-07-13T12:01:15;2.85;;;2.30;;
64684;SDS011;51109;47.414;18.954;2023-07-13T12:03:47;4.47;;;2.45;;
64684;SDS011;51109;47.414;18.954;2023-07-13T12:06:25;3.10;;;2.67;;
64684;SDS011;51109;47.414;18.954;2023-07-13T12:08:57;4.30;;;2.30;;
64684;SDS011;51109;47.414;18.954;2023-07-13T12:11:25;2.83;;;2.10;;
64684;SDS011;51109;47.414;18.954;2023-07-13T12:13:52;2.83;;;2.00;;
64684;SDS011;51109;47.414;18.954;2023-07-13T12:18:47;5.80;;;2.28;;
64684;SDS011;51109;47.414;18.954;2023-07-13T12:21:18;3.65;;;2.47;;
64684;SDS011;51109;47.414;18.954;2023-07-13T12:23:47;3.75;;;2.78;;
64684;SDS011;51109;47.414;18.954;2023-07-13T12:26:14;3.95;;;2.28;;
64684;SDS011;51109;47.414;18.954;2023-07-13T12:28:44;2.67;;;2.45;;
64684;SDS011;51109;47.414;18.954;2023-07-13T12:31:25;4.00;;;2.58;;
64684;SDS011;51109;47.414;18.954;2023-07-13T12:33:56;3.17;;;2.88;;
64684;SDS011;51109;47.414;18.954;2023-07-13T12:36:49;3.78;;;2.78;;
64684;SDS011;51109;47.414;18.954;2023-07-13T12:39:20;3.13;;;2.50;;
64684;SDS011;51109;47.414;18.954;2023-07-13T12:41:49;4.03;;;2.53;;
64684;SDS011;51109;47.414;18.954;2023-07-13T12:44:50;3.35;;;3.05;;
64684;SDS011;51109;47.414;18.954;2023-07-13T12:47:11;2.90;;;2.50;;
64684;SDS011;51109;47.414;18.954;2023-07-13T12:49:48;4.53;;;2.70;;
64684;SDS011;51109;47.414;18.954;2023-07-13T12:52:17;4.78;;;3.05;;
64684;SDS011;51109;47.414;18.954;2023-07-13T12:54:53;2.63;;;2.42;;
64684;SDS011;51109;47.414;18.954;2023-07-13T12:57:25;4.95;;;2.60;;
64684;SDS011;51109;47.414;18.954;2023-07-13T12:59:55;2.95;;;2.67;;
64684;SDS011;51109;47.414;18.954;2023-07-13T13:02:32;3.35;;;2.60;;
64684;SDS011;51109;47.414;18.954;2023-07-13T13:05:00;2.75;;;2.55;;
64684;SDS011;51109;47.414;18.954;2023-07-13T13:07:29;4.07;;;3.28;;
64684;SDS011;51109;47.414;18.954;2023-07-13T13:09:55;2.95;;;2.75;;
64684;SDS011;51109;47.414;18.954;2023-07-13T13:12:21;4.25;;;2.50;;
64684;SDS011;51109;47.414;18.954;2023-07-13T13:14:49;3.17;;;2.67;;
64684;SDS011;51109;47.414;18.954;2023-07-13T13:17:19;2.83;;;2.53;;
64684;SDS011;51109;47.414;18.954;2023-07-13T13:19:47;3.15;;;2.60;;
64684;SDS011;51109;47.414;18.954;2023-07-13T13:22:13;3.00;;;2.60;;
64684;SDS011;51109;47.414;18.954;2023-07-13T13:24:39;4.13;;;2.95;;
64684;SDS011;51109;47.414;18.954;2023-07-13T13:27:09;2.72;;;2.45;;
64684;SDS011;51109;47.414;18.954;2023-07-13T13:29:42;2.40;;;2.20;;
64684;SDS011;51109;47.414;18.954;2023-07-13T13:32:14;3.15;;;2.85;;
64684;SDS011;51109;47.414;18.954;2023-07-13T13:34:41;3.38;;;2.47;;
64684;SDS011;51109;47.414;18.954;2023-07-13T13:37:15;2.75;;;2.30;;
64684;SDS011;51109;47.414;18.954;2023-07-13T13:39:50;3.35;;;2.60;;
64684;SDS011;51109;47.414;18.954;2023-07-13T13:42:17;2.80;;;2.13;;
64684;SDS011;51109;47.414;18.954;2023-07-13T13:44:43;2.80;;;2.50;;
64684;SDS011;51109;47.414;18.954;2023-07-13T13:47:30;3.20;;;2.50;;
64684;SDS011;51109;47.414;18.954;2023-07-13T13:49:56;2.67;;;2.47;;
64684;SDS011;51109;47.414;18.954;2023-07-13T13:52:23;3.22;;;2.55;;
64684;SDS011;51109;47.414;18.954;2023-07-13T13:54:51;2.92;;;2.40;;
64684;SDS011;51109;47.414;18.954;2023-07-13T13:57:22;2.70;;;2.50;;
64684;SDS011;51109;47.414;18.954;2023-07-13T13:59:49;2.95;;;2.42;;
64684;SDS011;51109;47.414;18.954;2023-07-13T14:02:22;2.33;;;2.10;;
64684;SDS011;51109;47.414;18.954;2023-07-13T14:04:55;2.58;;;2.30;;
64684;SDS011;51109;47.414;18.954;2023-07-13T14:07:25;3.05;;;2.65;;
64684;SDS011;51109;47.414;18.954;2023-07-13T14:09:54;2.75;;;2.55;;
64684;SDS011;51109;47.414;18.954;2023-07-13T14:12:22;2.45;;;2.25;;
64684;SDS011;51109;47.414;18.954;2023-07-13T14:14:51;2.75;;;2.30;;
64684;SDS011;51109;47.414;18.954;2023-07-13T14:17:21;4.97;;;2.35;;
64684;SDS011;51109;47.414;18.954;2023-07-13T14:19:52;4.17;;;2.13;;
64684;SDS011;51109;47.414;18.954;2023-07-13T14:22:23;2.83;;;2.30;;
64684;SDS011;51109;47.414;18.954;2023-07-13T14:24:55;2.38;;;2.10;;
64684;SDS011;51109;47.414;18.954;2023-07-13T14:27:23;3.10;;;2.33;;
64684;SDS011;51109;47.414;18.954;2023-07-13T14:29:50;3.95;;;2.45;;
64684;SDS011;51109;47.414;18.954;2023-07-13T14:32:16;3.15;;;2.35;;
64684;SDS011;51109;47.414;18.954;2023-07-13T14:34:42;2.97;;;2.67;;
64684;SDS011;51109;47.414;18.954;2023-07-13T14:37:11;3.08;;;2.40;;
64684;SDS011;51109;47.414;18.954;2023-07-13T14:39:40;3.88;;;2.42;;
64684;SDS011;51109;47.414;18.954;2023-07-13T14:42:07;2.70;;;2.47;;
64684;SDS011;51109;47.414;18.954;2023-07-13T14:44:35;2.40;;;2.22;;
64684;SDS011;51109;47.414;18.954;2023-07-13T14:47:02;2.78;;;2.53;;
64684;SDS011;51109;47.414;18.954;2023-07-13T14:49:31;4.00;;;2.70;;
64684;SDS011;51109;47.414;18.954;2023-07-13T14:52:18;3.72;;;2.38;;
64684;SDS011;51109;47.414;18.954;2023-07-13T14:54:46;3.70;;;2.78;;
64684;SDS011;51109;47.414;18.954;2023-07-13T14:57:13;3.60;;;2.70;;
64684;SDS011;51109;47.414;18.954;2023-07-13T14:59:40;4.32;;;2.63;;
64684;SDS011;51109;47.414;18.954;2023-07-13T15:02:13;3.55;;;2.55;;
64684;SDS011;51109;47.414;18.954;2023-07-13T15:04:46;3.70;;;2.47;;
64684;SDS011;51109;47.414;18.954;2023-07-13T15:07:12;5.00;;;3.08;;
64684;SDS011;51109;47.414;18.954;2023-07-13T15:09:41;2.97;;;2.78;;
64684;SDS011;51109;47.414;18.954;2023-07-13T15:12:07;3.10;;;2.65;;
64684;SDS011;51109;47.414;18.954;2023-07-13T15:14:33;4.65;;;2.45;;
64684;SDS011;51109;47.414;18.954;2023-07-13T15:16:59;4.53;;;2.55;;
64684;SDS011;51109;47.414;18.954;2023-07-13T15:19:25;2.85;;;2.65;;
64684;SDS011;51109;47.414;18.954;2023-07-13T15:21:51;3.08;;;2.80;;
64684;SDS011;51109;47.414;18.954;2023-07-13T15:24:20;3.60;;;2.40;;
64684;SDS011;51109;47.414;18.954;2023-07-13T15:26:46;3.03;;;2.72;;
64684;SDS011;51109;47.414;18.954;2023-07-13T15:29:17;3.40;;;3.10;;
64684;SDS011;51109;47.414;18.954;2023-07-13T15:31:43;2.95;;;2.63;;
64684;SDS011;51109;47.414;18.954;2023-07-13T15:34:10;5.78;;;2.70;;
64684;SDS011;51109;47.414;18.954;2023-07-13T15:36:38;6.20;;;3.00;;
64684;SDS011;51109;47.414;18.954;2023-07-13T15:39:05;2.90;;;2.70;;